Time;durP1;ratioP1;P1;durP2;ratioP2;P2;SDS_P1;SDS_P2;PMS_P1;PMS_P2;Temp;Humidity;BMP_temperature;BMP_pressure;BME280_temperature;BME280_humidity;BME280_pressure;Samples;Min_cycle;Max_cycle;Signal;HPM_P1;HPM_P2
2023/03/28 00:00:57;;;;;;;2.67;2.47;;;;;;;0.05;73.00;92802.41;5004259;28;20738;-71
2023/03/28 00:03:24;;;;;;;2.42;2.22;;;;;;;0.17;73.01;92789.78;5005998;28;20084;-71
2023/03/28 00:05:54;;;;;;;2.53;2.33;;;;;;;0.06;72.39;92796.91;5005470;28;20144;-71
2023/03/28 00:08:19;;;;;;;2.47;2.00;;;;;;;-0.12;71.30;92808.78;5004958;28;20046;-70
2023/03/28 00:10:45;;;;;;;1.98;1.80;;;;;;;-0.05;70.47;92810.34;5008078;28;20018;-71
2023/03/28 00:13:12;;;;;;;2.05;1.95;;;;;;;-0.12;69.93;92827.09;5006065;28;20034;-71
2023/03/28 00:15:39;;;;;;;1.80;1.70;;;;;;;-0.26;69.68;92826.13;5007744;28;20072;-71
2023/03/28 00:18:05;;;;;;;1.83;1.63;;;;;;;-0.20;70.22;92843.34;5003605;28;20080;-71
2023/03/28 00:20:31;;;;;;;2.17;1.98;;;;;;;-0.14;70.36;92852.69;5006077;28;20619;-72
2023/03/28 00:22:57;;;;;;;2.35;2.15;;;;;;;0.05;70.50;92854.72;5004018;28;20029;-72
2023/03/28 00:25:23;;;;;;;1.80;1.70;;;;;;;-0.03;69.81;92868.31;5003485;28;20611;-72
2023/03/28 00:27:49;;;;;;;3.05;1.98;;;;;;;-0.12;69.44;92868.91;5001007;28;20042;-70
2023/03/28 00:30:14;;;;;;;2.25;2.10;;;;;;;-0.25;70.28;92874.72;4999479;28;20026;-71
2023/03/28 00:32:40;;;;;;;2.63;2.10;;;;;;;-0.14;70.54;92886.66;5004377;28;20123;-70
2023/03/28 00:35:06;;;;;;;3.03;2.70;;;;;;;-0.17;71.46;92889.06;5002682;28;20057;-71
2023/03/28 00:37:32;;;;;;;2.47;2.22;;;;;;;-0.17;70.66;92875.97;5003866;28;20451;-72
2023/03/28 00:39:58;;;;;;;1.98;1.88;;;;;;;0.01;69.38;92898.13;4999877;28;20037;-71
2023/03/28 00:42:24;;;;;;;2.55;2.35;;;;;;;-0.18;69.38;92897.94;5005815;28;20503;-70
2023/03/28 00:44:52;;;;;;;2.78;2.58;;;;;;;-0.37;68.87;92904.81;5004853;28;20041;-71
2023/03/28 00:47:27;;;;;;;2.80;2.60;;;;;;;-0.35;69.93;92911.34;5005845;28;20627;-72
2023/03/28 00:50:26;;;;;;;3.40;3.10;;;;;;;-0.41;69.50;92933.31;5007801;28;20030;-71
2023/03/28 00:53:03;;;;;;;3.88;3.58;;;;;;;-0.46;69.25;92929.91;5009467;28;20416;-71
2023/03/28 00:55:40;;;;;;;4.07;3.75;;;;;;;-0.62;69.84;92931.78;5012301;28;20894;-71
2023/03/28 00:58:09;;;;;;;3.97;3.67;;;;;;;-0.82;70.83;92932.59;5000670;28;20194;-70
2023/03/28 01:00:36;;;;;;;4.50;4.07;;;;;;;-0.99;71.05;92945.97;5005413;28;20034;-72
2023/03/28 01:03:05;;;;;;;6.25;4.43;;;;;;;-0.89;70.56;92963.44;5006022;28;20046;-71
2023/03/28 01:05:32;;;;;;;4.70;4.30;;;;;;;-1.00;70.88;92967.88;5006071;28;20124;-71
2023/03/28 01:08:16;;;;;;;4.30;3.90;;;;;;;-1.07;70.47;92936.03;5006392;28;20049;-72
2023/03/28 01:10:43;;;;;;;4.15;3.85;;;;;;;-0.98;69.53;92973.63;5007903;28;20396;-71
2023/03/28 01:13:10;;;;;;;5.25;4.43;;;;;;;-0.96;70.26;92948.03;5004791;28;20061;-71
2023/03/28 01:15:36;;;;;;;4.80;4.40;;;;;;;-0.83;68.53;92972.84;5004872;28;20041;-71
2023/03/28 01:18:10;;;;;;;5.38;4.88;;;;;;;-1.18;69.05;92951.97;5005809;28;20093;-72
2023/03/28 01:20:41;;;;;;;4.75;4.35;;;;;;;-0.84;69.43;92980.91;5005286;28;20320;-71
2023/03/28 01:23:15;;;;;;;3.80;3.50;;;;;;;-0.89;69.17;92991.38;5004624;28;20022;-73
2023/03/28 01:25:53;;;;;;;4.47;4.07;;;;;;;-0.95;69.00;93001.03;5006127;28;20068;-71
2023/03/28 01:28:36;;;;;;;4.65;4.20;;;;;;;-0.90;67.75;92992.41;5005551;28;20033;-71
2023/03/28 01:31:22;;;;;;;4.10;3.80;;;;;;;-1.00;68.51;92993.19;5001864;28;20124;-71
2023/03/28 01:34:19;;;;;;;4.70;4.30;;;;;;;-0.89;69.25;92992.16;5003066;28;20348;-71
2023/03/28 01:37:04;;;;;;;5.50;3.80;;;;;;;-0.73;67.21;92983.28;5006127;28;20599;-71
2023/03/28 01:39:41;;;;;;;4.47;4.07;;;;;;;-0.89;67.81;92993.97;5004512;28;20077;-72
2023/03/28 01:42:48;;;;;;;4.43;4.03;;;;;;;-0.96;67.38;92992.41;5004169;28;20378;-72
2023/03/28 01:45:18;;;;;;;5.03;4.32;;;;;;;-1.05;67.25;93009.63;5004382;28;20148;-71
2023/03/28 01:48:13;;;;;;;4.75;4.35;;;;;;;-0.91;68.11;92996.06;5004739;28;20573;-72
2023/03/28 01:51:02;;;;;;;3.97;3.67;;;;;;;-0.93;67.28;92995.53;5006247;28;20038;-71
2023/03/28 01:54:05;;;;;;;4.35;3.95;;;;;;;-0.89;67.22;92999.19;5007564;28;20037;-72
2023/03/28 01:56:37;;;;;;;4.35;3.95;;;;;;;-1.14;66.42;92986.94;5006309;28;20038;-74
2023/03/28 01:59:15;;;;;;;4.18;3.83;;;;;;;-1.07;66.64;93013.56;5022640;28;20026;-72
2023/03/28 02:02:11;;;;;;;8.55;6.55;;;;;;;-1.11;66.47;93009.88;5007812;28;20025;-74
2023/03/28 02:04:38;;;;;;;5.65;4.55;;;;;;;-1.17;67.20;93003.13;4997496;28;20096;-72
2023/03/28 02:07:07;;;;;;;5.20;4.78;;;;;;;-1.29;68.13;93000.75;5008182;28;20044;-74
2023/03/28 02:09:36;;;;;;;5.22;4.72;;;;;;;-1.23;67.18;92986.66;5008122;28;20042;-73
2023/03/28 02:12:09;;;;;;;5.22;4.82;;;;;;;-1.17;67.56;92993.47;5007403;28;20084;-73
2023/03/28 02:14:37;;;;;;;6.18;5.57;;;;;;;-1.01;68.02;92991.63;5001266;28;20107;-71
2023/03/28 02:17:14;;;;;;;4.93;4.47;;;;;;;-1.04;66.99;92987.72;4988711;28;20038;-73
2023/03/28 02:19:49;;;;;;;5.45;4.95;;;;;;;-1.00;67.01;92977.53;4985880;28;20028;-72
2023/03/28 02:22:14;;;;;;;5.22;4.80;;;;;;;-0.93;66.91;92975.44;4988744;28;20531;-73
2023/03/28 02:24:40;;;;;;;5.78;5.28;;;;;;;-0.93;66.89;92961.63;4988121;28;20563;-72
2023/03/28 02:27:07;;;;;;;5.60;5.07;;;;;;;-0.83;67.61;92959.00;4990140;28;20080;-72
2023/03/28 02:29:34;;;;;;;5.18;4.68;;;;;;;-0.70;66.90;92955.84;4986461;28;20046;-74
2023/03/28 02:32:00;;;;;;;5.57;5.05;;;;;;;-0.78;67.29;92969.44;4984618;28;20059;-72
2023/03/28 02:34:25;;;;;;;3.53;3.22;;;;;;;-0.83;65.48;92969.44;4985212;28;20026;-72
2023/03/28 02:37:06;;;;;;;3.47;3.17;;;;;;;-1.07;65.49;92972.56;4982364;28;20415;-73
2023/03/28 02:39:51;;;;;;;2.97;2.67;;;;;;;-1.00;65.46;92988.75;4985410;28;20570;-73
2023/03/28 02:42:42;;;;;;;3.00;2.80;;;;;;;-1.08;67.19;92976.25;4991179;28;20412;-73
2023/03/28 02:45:32;;;;;;;3.20;2.90;;;;;;;-1.00;66.02;92983.53;4988731;28;20038;-72
2023/03/28 02:48:31;;;;;;;3.92;2.70;;;;;;;-1.07;66.05;92975.16;4994154;28;20683;-73
2023/03/28 02:51:22;;;;;;;3.53;3.22;;;;;;;-1.06;66.26;92953.25;5007378;28;20061;-72
2023/03/28 02:54:02;;;;;;;2.80;2.60;;;;;;;-0.87;65.83;92981.47;5006236;28;20087;-72
2023/03/28 02:56:59;;;;;;;3.55;3.08;;;;;;;-0.76;64.86;92972.56;5006998;28;20385;-73
2023/03/28 02:59:33;;;;;;;2.95;2.75;;;;;;;-1.14;64.07;92966.84;5005599;28;20049;-72
2023/03/28 03:02:01;;;;;;;2.65;2.42;;;;;;;-1.20;63.77;92956.66;5006947;28;20072;-72
2023/03/28 03:04:27;;;;;;;2.95;2.75;;;;;;;-1.00;63.44;92978.31;5007699;28;20017;-73
2023/03/28 03:06:52;;;;;;;2.80;2.60;;;;;;;-1.15;63.56;92985.34;5004287;28;20135;-73
2023/03/28 03:09:18;;;;;;;2.60;2.40;;;;;;;-1.22;63.65;92996.06;5008161;28;20491;-72
2023/03/28 03:11:43;;;;;;;2.90;2.70;;;;;;;-1.19;64.03;92999.97;5004302;28;20144;-74
2023/03/28 03:14:09;;;;;;;3.17;2.88;;;;;;;-1.11;63.88;92978.56;5004929;28;20097;-73
2023/03/28 03:16:37;;;;;;;2.83;2.55;;;;;;;-1.41;63.57;92945.44;5004603;28;20149;-73
2023/03/28 03:19:03;;;;;;;2.97;2.78;;;;;;;-1.07;62.96;93003.88;5006450;28;20040;-73
2023/03/28 03:21:28;;;;;;;3.33;3.03;;;;;;;-1.08;63.73;93001.56;5004334;28;20045;-72
2023/03/28 03:23:54;;;;;;;2.95;2.75;;;;;;;-1.04;62.41;92992.94;5003778;28;20041;-74
2023/03/28 03:26:19;;;;;;;2.65;2.45;;;;;;;-1.20;62.99;92986.13;5003943;28;20120;-72
2023/03/28 03:28:45;;;;;;;4.05;2.33;;;;;;;-1.28;62.66;92993.69;5005951;28;20045;-75
2023/03/28 03:31:10;;;;;;;3.10;2.10;;;;;;;-1.43;63.77;92999.69;5004185;28;20064;-73
2023/03/28 03:33:40;;;;;;;2.78;2.58;;;;;;;-1.47;64.02;92991.59;5005194;28;20085;-73
2023/03/28 03:36:08;;;;;;;2.80;2.60;;;;;;;-1.52;64.07;93009.06;5007526;28;20037;-73
2023/03/28 03:38:34;;;;;;;3.00;2.70;;;;;;;-1.34;63.71;93019.00;5004574;28;20038;-74
2023/03/28 03:41:00;;;;;;;2.85;2.65;;;;;;;-1.29;63.34;93020.81;5007732;28;20029;-74
2023/03/28 03:43:26;;;;;;;2.63;2.42;;;;;;;-1.15;63.34;93016.66;5007794;28;20021;-74
2023/03/28 03:45:52;;;;;;;2.50;2.30;;;;;;;-1.29;61.87;93011.19;5006289;28;20034;-73
2023/03/28 03:48:17;;;;;;;2.50;2.30;;;;;;;-1.13;60.96;93019.81;5004293;28;20396;-74
2023/03/28 03:50:43;;;;;;;2.60;2.40;;;;;;;-1.47;61.30;93029.94;5008970;28;20037;-72
2023/03/28 03:53:08;;;;;;;2.58;2.38;;;;;;;-1.69;62.33;93030.13;5005740;28;20033;-73
2023/03/28 03:55:36;;;;;;;2.45;2.25;;;;;;;-1.64;62.65;93031.94;5008674;28;20029;-74
2023/03/28 03:58:02;;;;;;;3.00;2.80;;;;;;;-1.49;62.53;93047.66;5006122;28;20089;-73
2023/03/28 04:00:27;;;;;;;2.92;2.72;;;;;;;-1.51;62.50;93057.56;5006471;28;20599;-74
2023/03/28 04:02:52;;;;;;;3.00;2.80;;;;;;;-1.85;62.88;93050.13;5004838;28;21128;-73
2023/03/28 04:05:18;;;;;;;2.97;2.72;;;;;;;-1.88;63.31;93057.69;5006248;28;20052;-72
2023/03/28 04:07:43;;;;;;;6.50;3.10;;;;;;;-1.72;63.53;93059.31;5006113;28;20032;-73
2023/03/28 04:10:09;;;;;;;3.08;2.78;;;;;;;-1.74;63.25;93063.19;5003813;28;20026;-73
2023/03/28 04:12:35;;;;;;;2.92;2.65;;;;;;;-1.89;62.80;93022.22;5006317;28;20056;-73
2023/03/28 04:15:00;;;;;;;2.83;2.63;;;;;;;-1.63;61.87;93052.56;5007899;28;20061;-74
2023/03/28 04:17:28;;;;;;;3.20;2.90;;;;;;;-1.43;61.81;93057.06;5007291;28;20088;-73
2023/03/28 04:19:55;;;;;;;3.55;3.33;;;;;;;-1.44;61.21;93061.50;5009443;28;20025;-73
2023/03/28 04:22:21;;;;;;;3.65;2.92;;;;;;;-1.54;61.94;93065.88;5003735;28;20046;-73
2023/03/28 04:24:48;;;;;;;3.65;3.35;;;;;;;-1.57;62.03;93085.44;5007062;28;20474;-72
2023/03/28 04:27:16;;;;;;;3.10;2.90;;;;;;;-1.67;62.55;93072.38;5005590;28;20112;-72
2023/03/28 04:29:42;;;;;;;3.45;3.15;;;;;;;-1.58;61.72;93086.47;5005866;28;20097;-73
2023/03/28 04:32:10;;;;;;;7.25;3.35;;;;;;;-1.50;61.13;93082.59;5005568;28;20132;-73
2023/03/28 04:34:36;;;;;;;3.85;3.50;;;;;;;-1.44;60.22;93099.81;5005924;28;20170;-73
2023/03/28 04:37:02;;;;;;;3.80;3.50;;;;;;;-1.27;59.55;93082.16;5004646;28;20042;-72
2023/03/28 04:39:34;;;;;;;5.38;4.00;;;;;;;-1.36;59.03;93094.09;5006681;28;20048;-72
2023/03/28 04:42:02;;;;;;;3.45;3.03;;;;;;;-1.52;59.12;93110.75;5003711;28;20069;-73
2023/03/28 04:44:30;;;;;;;3.65;3.35;;;;;;;-1.57;60.25;93118.56;5004703;28;20100;-73
2023/03/28 04:46:57;;;;;;;4.10;3.55;;;;;;;-1.59;59.89;93124.00;5007754;28;20021;-73
2023/03/28 04:49:23;;;;;;;3.88;3.47;;;;;;;-1.69;59.69;93116.16;5005560;28;20042;-73
2023/03/28 04:51:51;;;;;;;4.00;3.70;;;;;;;-1.62;60.14;93149.81;5007216;28;20057;-74
2023/03/28 04:54:18;;;;;;;5.53;4.07;;;;;;;-1.72;60.11;93145.34;5006023;28;20025;-73
2023/03/28 04:56:47;;;;;;;4.20;3.80;;;;;;;-1.58;60.20;93154.28;5004698;28;20045;-74
2023/03/28 04:59:12;;;;;;;4.60;4.20;;;;;;;-1.60;60.42;93145.13;5005020;28;20025;-73
2023/03/28 05:01:38;;;;;;;4.90;4.40;;;;;;;-1.38;60.75;93153.59;5006873;28;20413;-73
2023/03/28 05:04:03;;;;;;;4.60;3.72;;;;;;;-1.45;59.90;93147.81;5004526;28;20033;-73
2023/03/28 05:06:28;;;;;;;5.40;4.22;;;;;;;-1.28;59.65;93169.28;5005383;28;20029;-73
2023/03/28 05:08:54;;;;;;;5.68;3.90;;;;;;;-1.30;59.77;93165.34;5006673;28;20050;-73
2023/03/28 05:11:20;;;;;;;4.95;4.45;;;;;;;-1.42;60.33;93148.09;5004468;28;20042;-72
2023/03/28 05:13:45;;;;;;;6.50;5.10;;;;;;;-1.38;60.70;93153.59;5007349;28;20084;-73
2023/03/28 05:16:11;;;;;;;7.60;6.10;;;;;;;-1.22;61.28;93167.47;5003584;28;20346;-72
2023/03/28 05:18:36;;;;;;;7.25;5.47;;;;;;;-1.16;61.07;93162.00;5007055;28;20353;-72
2023/03/28 05:21:02;;;;;;;7.90;5.38;;;;;;;-1.01;60.01;93185.53;5006869;28;20047;-73
2023/03/28 05:23:27;;;;;;;5.15;4.68;;;;;;;-1.03;60.07;93192.06;5008652;28;20041;-72
2023/03/28 05:25:53;;;;;;;5.82;4.45;;;;;;;-1.33;60.38;93166.66;5009919;28;20606;-73
2023/03/28 05:28:20;;;;;;;5.22;4.82;;;;;;;-1.42;61.89;93186.44;5009385;28;20412;-72
2023/03/28 05:30:45;;;;;;;6.00;4.57;;;;;;;-1.48;61.85;93163.97;5014086;28;20060;-73
2023/03/28 05:33:11;;;;;;;5.25;4.85;;;;;;;-1.50;62.34;93179.06;5009066;28;20845;-71
2023/03/28 05:35:36;;;;;;;6.78;5.78;;;;;;;-1.59;64.31;93178.00;5009525;28;20038;-73
2023/03/28 05:38:05;;;;;;;6.40;5.68;;;;;;;-1.46;65.11;93198.41;5008213;28;20034;-73
2023/03/28 05:40:30;;;;;;;7.43;6.72;;;;;;;-1.38;64.40;93197.94;5010951;28;20498;-73
2023/03/28 05:42:56;;;;;;;7.43;6.60;;;;;;;-1.43;64.24;93203.13;5008063;28;20038;-72
2023/03/28 05:45:22;;;;;;;8.02;7.22;;;;;;;-1.69;64.36;93167.50;5008495;28;20038;-73
2023/03/28 05:47:53;;;;;;;7.45;6.75;;;;;;;-1.23;63.98;93228.50;5009837;28;20026;-72
2023/03/28 05:50:19;;;;;;;6.97;6.38;;;;;;;-1.61;64.61;93195.72;5016447;28;20040;-73
2023/03/28 05:52:45;;;;;;;8.90;7.57;;;;;;;-1.74;66.56;93209.19;5007673;28;20030;-72
2023/03/28 05:55:10;;;;;;;8.55;7.70;;;;;;;-1.72;67.22;93228.78;5010142;28;20585;-72
2023/03/28 05:57:35;;;;;;;9.60;7.97;;;;;;;-1.82;67.95;93221.66;5007680;28;20033;-72
2023/03/28 06:00:09;;;;;;;9.40;8.40;;;;;;;-1.76;68.69;93238.13;5007886;28;20096;-72
2023/03/28 06:02:35;;;;;;;9.52;8.52;;;;;;;-1.89;68.91;93226.28;5007937;28;20037;-73
2023/03/28 06:05:00;;;;;;;9.18;8.23;;;;;;;-1.88;69.21;93233.09;5009117;28;20625;-73
2023/03/28 06:07:25;;;;;;;9.90;8.45;;;;;;;-1.78;69.15;93244.63;5009195;28;20021;-74
2023/03/28 06:09:51;;;;;;;9.57;8.40;;;;;;;-1.63;68.77;93249.94;5008105;28;20068;-73
2023/03/28 06:12:16;;;;;;;10.10;8.98;;;;;;;-1.66;69.47;93248.63;5007800;28;20045;-72
2023/03/28 06:14:42;;;;;;;9.93;8.93;;;;;;;-1.74;69.33;93249.06;5008006;28;20412;-72
2023/03/28 06:17:07;;;;;;;9.43;8.43;;;;;;;-2.06;69.58;93202.22;5015095;28;20029;-72
2023/03/28 06:19:32;;;;;;;9.13;8.18;;;;;;;-1.89;70.75;93254.97;5006090;28;20029;-72
2023/03/28 06:21:58;;;;;;;10.20;7.82;;;;;;;-1.83;70.82;93268.81;5009128;28;20322;-72
2023/03/28 06:24:23;;;;;;;9.52;8.60;;;;;;;-2.01;72.31;93258.78;5007862;28;20069;-73
2023/03/28 06:26:48;;;;;;;10.25;9.15;;;;;;;-1.92;72.69;93258.09;5007156;28;20526;-73
2023/03/28 06:29:15;;;;;;;9.13;7.72;;;;;;;-2.26;70.83;93247.13;5006714;28;20030;-71
2023/03/28 06:31:40;;;;;;;9.73;8.13;;;;;;;-2.26;70.56;93241.13;5006924;28;20041;-72
2023/03/28 06:34:06;;;;;;;9.07;8.20;;;;;;;-2.16;70.57;93267.25;5005380;28;20484;-72
2023/03/28 06:36:31;;;;;;;8.98;8.07;;;;;;;-1.97;70.51;93263.25;5002076;28;20103;-72
2023/03/28 06:38:57;;;;;;;9.00;8.13;;;;;;;-2.08;69.16;93281.66;5003241;28;20077;-71
2023/03/28 06:41:23;;;;;;;10.98;8.93;;;;;;;-2.05;68.73;93274.16;5000568;28;20092;-73
2023/03/28 06:43:48;;;;;;;10.10;8.80;;;;;;;-2.15;66.76;93265.44;5010059;28;20383;-71
2023/03/28 06:46:15;;;;;;;8.57;7.70;;;;;;;-2.19;67.06;93283.38;5005538;28;20471;-74
2023/03/28 06:48:40;;;;;;;10.98;8.77;;;;;;;-2.08;66.82;93286.84;5009444;28;20349;-74
2023/03/28 06:51:06;;;;;;;9.48;8.25;;;;;;;-1.98;67.43;93279.91;5005939;28;20492;-75
2023/03/28 06:53:31;;;;;;;8.80;7.78;;;;;;;-1.97;69.06;93284.09;5005368;28;20046;-75
2023/03/28 06:55:58;;;;;;;9.25;8.35;;;;;;;-2.00;67.21;93261.16;5007778;28;20021;-76
2023/03/28 06:58:24;;;;;;;8.73;7.93;;;;;;;-1.67;67.86;93285.38;5005917;28;22342;-75
2023/03/28 07:00:52;;;;;;;8.75;7.85;;;;;;;-2.14;66.05;93239.13;5004253;28;20081;-74
2023/03/28 07:03:18;;;;;;;9.68;8.27;;;;;;;-1.78;66.65;93296.75;5007308;28;20559;-74
2023/03/28 07:05:44;;;;;;;7.88;7.07;;;;;;;-1.79;65.22;93279.53;5002713;28;20041;-74
2023/03/28 07:08:11;;;;;;;10.50;8.40;;;;;;;-1.76;63.51;93290.28;5008327;28;20139;-74
2023/03/28 07:10:38;;;;;;;7.65;6.95;;;;;;;-1.83;63.52;93292.28;5009337;28;20029;-74
2023/03/28 07:13:04;;;;;;;8.10;7.25;;;;;;;-1.90;62.86;93302.16;5005712;28;20096;-74
2023/03/28 07:15:30;;;;;;;7.95;7.15;;;;;;;-2.14;61.09;93280.06;5007378;28;20078;-73
2023/03/28 07:17:56;;;;;;;8.57;7.70;;;;;;;-1.89;61.71;93298.47;5004065;28;20671;-74
2023/03/28 07:20:22;;;;;;;15.93;8.50;;;;;;;-1.75;61.06;93330.16;5004049;28;20500;-74
2023/03/28 07:22:48;;;;;;;8.35;7.03;;;;;;;-1.75;60.65;93325.72;5002558;28;20024;-74
2023/03/28 07:25:13;;;;;;;8.48;7.40;;;;;;;-2.08;59.95;93269.41;5005133;28;20034;-74
2023/03/28 07:27:39;;;;;;;8.13;7.18;;;;;;;-2.00;60.35;93312.50;5004178;28;20061;-74
2023/03/28 07:30:06;;;;;;;10.02;6.85;;;;;;;-1.92;59.16;93325.84;5003988;28;20034;-74
2023/03/28 07:32:31;;;;;;;9.18;7.30;;;;;;;-1.96;59.50;93303.13;4999622;28;20591;-74
2023/03/28 07:34:57;;;;;;;8.40;7.57;;;;;;;-1.71;58.92;93323.41;5001843;28;20026;-74
2023/03/28 07:37:22;;;;;;;9.02;7.75;;;;;;;-1.69;58.86;93332.53;5005026;28;20045;-73
2023/03/28 07:39:48;;;;;;;8.52;7.05;;;;;;;-1.69;58.23;93329.16;5001456;28;20046;-75
2023/03/28 07:42:14;;;;;;;8.32;6.75;;;;;;;-1.49;57.66;93340.53;4998384;28;20060;-74
2023/03/28 07:44:40;;;;;;;7.38;6.65;;;;;;;-1.43;56.92;93360.41;5001707;28;20508;-74
2023/03/28 07:47:07;;;;;;;7.63;6.95;;;;;;;-1.55;56.61;93341.50;4998086;28;20132;-74
2023/03/28 07:49:32;;;;;;;7.90;6.53;;;;;;;-1.67;56.59;93343.53;5001644;28;20033;-74
2023/03/28 07:51:58;;;;;;;8.32;6.22;;;;;;;-1.99;56.62;93314.03;5001962;28;20038;-74
2023/03/28 07:54:26;;;;;;;7.28;6.68;;;;;;;-1.57;57.38;93358.47;5001172;28;20055;-73
2023/03/28 07:56:51;;;;;;;6.63;5.95;;;;;;;-1.66;56.12;93336.50;5001697;28;20125;-73
2023/03/28 07:59:17;;;;;;;10.18;6.13;;;;;;;-1.73;56.81;93341.13;5000230;28;21563;-74
2023/03/28 08:01:44;;;;;;;9.32;6.45;;;;;;;-1.65;57.74;93371.94;5003765;28;20124;-74
2023/03/28 08:04:11;;;;;;;7.20;5.85;;;;;;;-1.54;58.09;93373.59;4998477;28;20121;-74
2023/03/28 08:06:38;;;;;;;7.55;6.60;;;;;;;-1.49;59.12;93364.00;5003462;28;20272;-74
2023/03/28 08:09:06;;;;;;;10.13;6.40;;;;;;;-1.43;59.74;93359.63;5003992;28;20061;-73
2023/03/28 08:11:33;;;;;;;8.27;7.20;;;;;;;-1.46;59.68;93347.09;5001826;28;20037;-74
2023/03/28 08:14:00;;;;;;;6.95;6.25;;;;;;;-1.45;58.98;93366.88;5002413;28;20552;-74
2023/03/28 08:16:25;;;;;;;7.63;6.82;;;;;;;-1.21;57.68;93391.59;4999443;28;20562;-73
2023/03/28 08:18:51;;;;;;;7.45;6.43;;;;;;;-1.44;58.41;93397.16;5000948;28;20041;-74
2023/03/28 08:21:17;;;;;;;8.15;6.40;;;;;;;-1.55;58.31;93385.06;5000570;28;20037;-74
2023/03/28 08:23:43;;;;;;;6.70;5.78;;;;;;;-1.52;59.43;93408.84;5001920;28;20408;-75
2023/03/28 08:26:09;;;;;;;7.63;6.82;;;;;;;-1.61;58.96;93404.31;5001399;28;20216;-75
2023/03/28 08:28:36;;;;;;;7.32;6.60;;;;;;;-1.52;59.17;93414.06;5001691;28;20480;-74
2023/03/28 08:31:08;;;;;;;7.60;6.80;;;;;;;-1.31;59.37;93424.66;5002408;28;20069;-74
2023/03/28 08:33:34;;;;;;;12.52;8.02;;;;;;;-1.28;59.58;93430.16;4997646;28;20420;-75
2023/03/28 08:35:59;;;;;;;8.52;6.53;;;;;;;-1.36;59.95;93416.81;5003383;28;20563;-74
2023/03/28 08:38:25;;;;;;;15.68;10.45;;;;;;;-1.44;59.29;93415.41;5001698;28;20433;-74
2023/03/28 08:41:02;;;;;;;25.83;19.65;;;;;;;-1.38;59.24;93430.09;5002380;28;20029;-74
2023/03/28 08:43:33;;;;;;;9.75;7.97;;;;;;;-1.49;59.76;93438.84;5000394;28;20049;-74
2023/03/28 08:46:00;;;;;;;12.25;8.15;;;;;;;-1.48;59.29;93430.00;5003610;28;20053;-73
2023/03/28 08:48:33;;;;;;;7.68;6.80;;;;;;;-1.58;60.22;93440.34;5002856;28;20117;-73
2023/03/28 08:51:19;;;;;;;8.73;7.40;;;;;;;-1.53;59.29;93435.16;5002771;28;20065;-74
2023/03/28 08:54:10;;;;;;;8.38;7.10;;;;;;;-1.37;58.66;93436.88;5012016;28;20183;-74
2023/03/28 08:56:43;;;;;;;10.82;8.20;;;;;;;-1.21;58.05;93435.94;5004730;28;20038;-74
2023/03/28 08:59:14;;;;;;;7.20;6.50;;;;;;;-1.29;57.15;93433.00;4999777;28;20072;-73
2023/03/28 09:01:40;;;;;;;7.18;6.57;;;;;;;-1.45;57.45;93445.94;5004160;28;20080;-75
2023/03/28 09:04:07;;;;;;;7.22;6.55;;;;;;;-1.57;58.05;93434.88;5000983;28;20041;-74
2023/03/28 09:06:43;;;;;;;10.63;7.85;;;;;;;-1.43;58.04;93422.22;5003860;28;20037;-74
2023/03/28 09:09:33;;;;;;;8.73;7.80;;;;;;;-1.55;59.20;93439.81;5002777;28;20913;-73
2023/03/28 09:12:22;;;;;;;9.80;8.65;;;;;;;-1.48;58.29;93445.63;5001962;28;20752;-73
2023/03/28 09:14:56;;;;;;;8.02;7.22;;;;;;;-1.31;57.66;93448.91;5004978;28;20045;-73
2023/03/28 09:17:57;;;;;;;11.03;7.87;;;;;;;-1.27;58.25;93436.97;5002571;28;20036;-73
2023/03/28 09:21:05;;;;;;;9.20;8.30;;;;;;;-1.25;58.23;93444.53;5011634;28;20650;-75
2023/03/28 09:23:49;;;;;;;8.45;7.65;;;;;;;-1.19;57.84;93446.94;5000228;28;20076;-74
2023/03/28 09:26:28;;;;;;;8.95;6.47;;;;;;;-1.21;57.69;93435.16;4998256;28;20029;-73
2023/03/28 09:29:22;;;;;;;11.52;9.13;;;;;;;-0.99;56.37;93454.94;4985623;28;20415;-73
2023/03/28 09:31:50;;;;;;;7.45;6.72;;;;;;;-0.82;54.65;93453.97;5005373;28;20050;-74
2023/03/28 09:34:28;;;;;;;7.03;6.32;;;;;;;-0.92;54.86;93453.94;4991181;28;20045;-74
2023/03/28 09:37:04;;;;;;;9.15;6.13;;;;;;;-0.90;55.36;93464.91;5000912;28;20030;-76
2023/03/28 09:39:41;;;;;;;8.88;6.82;;;;;;;-0.96;55.75;93471.91;5001931;28;20041;-74
2023/03/28 09:42:37;;;;;;;7.70;6.35;;;;;;;-1.20;55.70;93479.28;5004844;28;20038;-74
2023/03/28 09:45:05;;;;;;;;;;;;;;;-1.47;55.29;93474.09;5004278;28;20327;-73
2023/03/28 09:47:31;;;;;;;8.05;6.50;;;;;;;-1.31;56.11;93480.22;5005364;28;19921;-73
2023/03/28 09:49:57;;;;;;;7.53;6.90;;;;;;;-1.30;56.25;93468.75;5002085;28;20479;-74
2023/03/28 09:52:23;;;;;;;7.55;6.78;;;;;;;-1.40;56.93;93474.66;5001336;28;20531;-74
2023/03/28 09:54:49;;;;;;;8.10;7.30;;;;;;;-1.83;56.16;93444.25;4999185;28;20038;-74
2023/03/28 09:57:15;;;;;;;8.05;6.43;;;;;;;-1.55;56.69;93484.16;5004517;28;20103;-74
2023/03/28 09:59:40;;;;;;;8.18;7.35;;;;;;;-1.38;56.43;93470.00;5000180;28;20583;-74
2023/03/28 10:02:24;;;;;;;8.85;7.95;;;;;;;-1.03;55.29;93466.91;4992036;28;20025;-74
2023/03/28 10:04:51;;;;;;;7.07;6.28;;;;;;;-0.99;53.98;93481.03;4989991;28;20033;-74
2023/03/28 10:07:42;;;;;;;8.75;6.85;;;;;;;-0.88;53.85;93481.09;4994489;28;20264;-74
2023/03/28 10:10:17;;;;;;;7.05;6.35;;;;;;;-0.98;54.15;93456.50;5001168;28;20041;-75
2023/03/28 10:12:45;;;;;;;7.38;5.72;;;;;;;-0.76;52.74;93458.19;5005958;28;20141;-74
2023/03/28 10:15:31;;;;;;;7.13;6.40;;;;;;;-0.47;50.77;93463.84;5007342;28;20052;-74
2023/03/28 10:17:58;;;;;;;;;;;;;;;-0.63;51.40;93466.38;5006931;28;20045;-74
2023/03/28 10:20:23;;;;;;;7.30;5.63;;;;;;;-0.67;51.69;93456.69;5000255;28;19921;-74
2023/03/28 10:22:53;;;;;;;8.10;6.35;;;;;;;-0.42;51.36;93463.88;5005183;28;20091;-73
2023/03/28 10:25:22;;;;;;;7.40;5.90;;;;;;;-0.60;51.40;93468.50;5004353;28;20045;-74
2023/03/28 10:27:50;;;;;;;8.85;6.68;;;;;;;-0.48;51.36;93463.06;5006886;28;20033;-74
2023/03/28 10:30:22;;;;;;;6.47;5.38;;;;;;;-0.69;50.72;93448.34;5003197;28;20037;-74
2023/03/28 10:33:16;;;;;;;6.47;5.85;;;;;;;-0.64;50.81;93484.94;5007819;28;20040;-75
2023/03/28 10:35:56;;;;;;;10.55;6.20;;;;;;;-0.70;51.38;93489.34;5008137;28;20061;-74
2023/03/28 10:38:24;;;;;;;6.75;5.90;;;;;;;-0.81;52.89;93485.06;5009270;28;20057;-75
2023/03/28 10:41:00;;;;;;;7.30;6.55;;;;;;;-0.81;53.33;93486.88;5008891;28;20033;-75
2023/03/28 10:43:52;;;;;;;7.25;6.15;;;;;;;-1.36;52.33;93391.47;5007113;28;20128;-75
2023/03/28 10:46:33;;;;;;;6.00;5.50;;;;;;;-0.46;52.65;93499.41;5008128;28;20057;-74
2023/03/28 10:49:12;;;;;;;6.15;5.57;;;;;;;-0.83;51.94;93436.75;5005206;28;20042;-75
2023/03/28 10:51:40;;;;;;;7.70;6.90;;;;;;;-0.43;52.76;93473.56;4995693;28;20424;-74
2023/03/28 10:54:09;;;;;;;7.88;6.63;;;;;;;-0.19;52.29;93479.94;5005867;28;20450;-74
2023/03/28 10:56:56;;;;;;;6.45;5.78;;;;;;;-0.08;51.34;93478.97;5009418;28;20053;-75
2023/03/28 10:59:33;;;;;;;6.50;5.90;;;;;;;-0.17;52.27;93471.88;5014041;28;20030;-75
2023/03/28 11:02:07;;;;;;;6.97;6.25;;;;;;;0.11;52.29;93471.44;5004932;28;20025;-74
2023/03/28 11:04:36;;;;;;;8.50;6.65;;;;;;;0.24;51.53;93462.34;4997599;28;20034;-74
2023/03/28 11:07:09;;;;;;;6.90;6.30;;;;;;;0.12;51.15;93451.31;5000281;28;20041;-75
2023/03/28 11:09:51;;;;;;;6.63;6.03;;;;;;;-0.03;50.61;93451.25;5004639;28;20077;-75
2023/03/28 11:12:38;;;;;;;13.82;5.90;;;;;;;0.15;49.67;93474.34;5005864;28;21018;-74
2023/03/28 11:15:28;;;;;;;5.63;4.75;;;;;;;0.04;49.95;93475.34;5003976;28;20092;-74
2023/03/28 11:18:12;;;;;;;6.38;5.65;;;;;;;-0.00;50.68;93484.75;4999276;28;20253;-75
2023/03/28 11:20:54;;;;;;;5.97;5.38;;;;;;;-0.10;50.49;93483.69;4998690;28;20779;-75
2023/03/28 11:23:30;;;;;;;6.43;5.82;;;;;;;-0.13;49.50;93484.16;4991245;28;20041;-75
2023/03/28 11:26:07;;;;;;;6.55;5.68;;;;;;;-0.15;50.57;93480.25;4993208;28;20032;-75
2023/03/28 11:28:37;;;;;;;8.23;5.45;;;;;;;0.01;49.92;93486.34;5003302;28;20471;-74
2023/03/28 11:31:03;;;;;;;6.30;5.70;;;;;;;0.10;48.92;93472.50;5010847;28;20044;-73
2023/03/28 11:33:53;;;;;;;6.95;6.22;;;;;;;0.35;49.17;93487.47;5002954;28;20045;-74
2023/03/28 11:36:28;;;;;;;7.50;5.90;;;;;;;0.28;47.96;93484.34;5003163;28;21116;-75
2023/03/28 11:39:01;;;;;;;6.43;5.45;;;;;;;0.43;47.87;93481.75;5003362;28;20052;-74
2023/03/28 11:41:32;;;;;;;6.03;5.32;;;;;;;0.53;48.37;93479.16;5002401;28;20645;-75
2023/03/28 11:44:20;;;;;;;10.32;6.97;;;;;;;0.56;49.23;93481.25;5002535;28;20025;-74
2023/03/28 11:46:55;;;;;;;7.25;5.43;;;;;;;0.27;46.75;93469.69;5010242;28;20434;-74
2023/03/28 11:49:25;;;;;;;5.88;5.00;;;;;;;0.43;45.70;93504.53;5000038;28;20034;-74
2023/03/28 11:51:58;;;;;;;7.35;6.55;;;;;;;0.42;46.67;93479.41;4985865;28;20044;-73